TBD775 ENSS-ENMH
Flight info
| Callsign | TBD775 |
|---|---|
| Flight time | 0h 28m |
| Altitude | 12000 |
| Route | BX |
| Aircraft | TBM8/L-SBDFGRWY/G |
Departure
| Time | 2026-05-01 13:07 |
|---|---|
| Airport | Vardø Airport, Svartnes (ENSS) |
Arrival
| Time | 2026-05-01 13:36 |
|---|---|
| Airport | Mehamn Airport (ENMH) |
| Time | Latitude | Longitude | Altitude | Speed | Heading |
|---|---|---|---|---|---|
| 2026-05-01 12:39 | 70.35652 | 31.04164 | 43 ft | 0 kts | 344° |
| 2026-05-01 13:07 | 70.34670 | 31.05154 | 368 ft | 111 kts | 171° |
| 2026-05-01 13:07 | 70.33910 | 31.05644 | 899 ft | 115 kts | 174° |
| 2026-05-01 13:07 | 70.33097 | 31.06250 | 1366 ft | 124 kts | 174° |
| 2026-05-01 13:08 | 70.32351 | 31.07465 | 1915 ft | 134 kts | 133° |
| 2026-05-01 13:08 | 70.32035 | 31.10176 | 2362 ft | 146 kts | 84° |
| 2026-05-01 13:08 | 70.32444 | 31.12705 | 3027 ft | 133 kts | 28° |
| 2026-05-01 13:08 | 70.33287 | 31.12664 | 3364 ft | 134 kts | 316° |
| 2026-05-01 13:09 | 70.33854 | 31.10743 | 4163 ft | 113 kts | 306° |
| 2026-05-01 13:09 | 70.34368 | 31.08920 | 4649 ft | 122 kts | 308° |
| 2026-05-01 13:09 | 70.34912 | 31.06909 | 5202 ft | 122 kts | 304° |
| 2026-05-01 13:09 | 70.35405 | 31.04994 | 5863 ft | 118 kts | 304° |
| 2026-05-01 13:10 | 70.35779 | 31.03579 | 5944 ft | 142 kts | 309° |
| 2026-05-01 13:10 | 70.36424 | 31.01544 | 6684 ft | 126 kts | 308° |
| 2026-05-01 13:10 | 70.36919 | 30.99474 | 7271 ft | 127 kts | 301° |
| 2026-05-01 13:10 | 70.37454 | 30.97307 | 7851 ft | 128 kts | 303° |
| 2026-05-01 13:11 | 70.37973 | 30.95179 | 8465 ft | 128 kts | 301° |
| 2026-05-01 13:11 | 70.38442 | 30.92917 | 9040 ft | 129 kts | 293° |
| 2026-05-01 13:11 | 70.38819 | 30.90489 | 9708 ft | 126 kts | 294° |
| 2026-05-01 13:11 | 70.39246 | 30.88074 | 10152 ft | 139 kts | 301° |
| 2026-05-01 13:12 | 70.39790 | 30.85754 | 10826 ft | 130 kts | 300° |
| 2026-05-01 13:12 | 70.40268 | 30.83545 | 11290 ft | 134 kts | 292° |
| 2026-05-01 13:12 | 70.40650 | 30.80892 | 11688 ft | 147 kts | 292° |
| 2026-05-01 13:12 | 70.41159 | 30.77911 | 11755 ft | 176 kts | 297° |
| 2026-05-01 13:13 | 70.41814 | 30.74429 | 11693 ft | 202 kts | 298° |
| 2026-05-01 13:13 | 70.42535 | 30.70677 | 11717 ft | 216 kts | 294° |
| 2026-05-01 13:13 | 70.43228 | 30.66697 | 11800 ft | 223 kts | 293° |
| 2026-05-01 13:13 | 70.43922 | 30.62383 | 11780 ft | 230 kts | 292° |
| 2026-05-01 13:14 | 70.44620 | 30.58003 | 11687 ft | 238 kts | 294° |
| 2026-05-01 13:14 | 70.45384 | 30.53632 | 11707 ft | 238 kts | 295° |
| 2026-05-01 13:14 | 70.46168 | 30.49246 | 11669 ft | 240 kts | 296° |
| 2026-05-01 13:14 | 70.47007 | 30.44955 | 11720 ft | 240 kts | 298° |
| 2026-05-01 13:15 | 70.47920 | 30.40733 | 11680 ft | 243 kts | 300° |
| 2026-05-01 13:15 | 70.48870 | 30.36568 | 11633 ft | 244 kts | 300° |
| 2026-05-01 13:15 | 70.49826 | 30.32407 | 11720 ft | 239 kts | 300° |
| 2026-05-01 13:15 | 70.50718 | 30.28191 | 11765 ft | 236 kts | 297° |
| 2026-05-01 13:16 | 70.51564 | 30.23949 | 11671 ft | 242 kts | 297° |
| 2026-05-01 13:16 | 70.52390 | 30.19599 | 11747 ft | 239 kts | 296° |
| 2026-05-01 13:16 | 70.53218 | 30.15283 | 11749 ft | 239 kts | 297° |
| 2026-05-01 13:17 | 70.55770 | 30.02349 | 11705 ft | 238 kts | 296° |
| 2026-05-01 13:17 | 70.56583 | 29.97999 | 11607 ft | 239 kts | 296° |
| 2026-05-01 13:18 | 70.58192 | 29.89327 | 11649 ft | 236 kts | 294° |
| 2026-05-01 13:18 | 70.58938 | 29.84940 | 11692 ft | 235 kts | 294° |
| 2026-05-01 13:18 | 70.59722 | 29.80554 | 11649 ft | 238 kts | 296° |
| 2026-05-01 13:18 | 70.60582 | 29.76262 | 11654 ft | 239 kts | 298° |
| 2026-05-01 13:19 | 70.61448 | 29.71961 | 11721 ft | 237 kts | 296° |
| 2026-05-01 13:19 | 70.62336 | 29.67709 | 11626 ft | 244 kts | 306° |
| 2026-05-01 13:19 | 70.65187 | 29.61702 | 11403 ft | 256 kts | 321° |
| 2026-05-01 13:20 | 70.66675 | 29.58748 | 11374 ft | 253 kts | 319° |
| 2026-05-01 13:20 | 70.68056 | 29.55576 | 11381 ft | 248 kts | 315° |
| 2026-05-01 13:20 | 70.69375 | 29.52163 | 11203 ft | 251 kts | 314° |
| 2026-05-01 13:21 | 70.72146 | 29.45730 | 10994 ft | 253 kts | 317° |
| 2026-05-01 13:21 | 70.73570 | 29.42556 | 10748 ft | 256 kts | 317° |
| 2026-05-01 13:21 | 70.74911 | 29.39083 | 10622 ft | 251 kts | 311° |
| 2026-05-01 13:21 | 70.76179 | 29.35393 | 10299 ft | 256 kts | 311° |
| 2026-05-01 13:22 | 70.77454 | 29.31676 | 10151 ft | 251 kts | 309° |
| 2026-05-01 13:22 | 70.78584 | 29.27652 | 9900 ft | 249 kts | 302° |
| 2026-05-01 13:22 | 70.79638 | 29.23470 | 9680 ft | 248 kts | 303° |
| 2026-05-01 13:22 | 70.80787 | 29.19522 | 9305 ft | 254 kts | 310° |
| 2026-05-01 13:23 | 70.82089 | 29.15842 | 8896 ft | 257 kts | 312° |
| 2026-05-01 13:23 | 70.83403 | 29.12150 | 8658 ft | 252 kts | 311° |
| 2026-05-01 13:23 | 70.84647 | 29.08459 | 8435 ft | 249 kts | 309° |
| 2026-05-01 13:23 | 70.85837 | 29.04565 | 7994 ft | 252 kts | 309° |
| 2026-05-01 13:24 | 70.87093 | 29.00834 | 7731 ft | 250 kts | 311° |
| 2026-05-01 13:24 | 70.88332 | 28.97149 | 7460 ft | 248 kts | 311° |
| 2026-05-01 13:24 | 70.89613 | 28.93603 | 7133 ft | 249 kts | 313° |
| 2026-05-01 13:25 | 70.92195 | 28.86508 | 6464 ft | 248 kts | 311° |
| 2026-05-01 13:25 | 70.93389 | 28.82739 | 6196 ft | 246 kts | 308° |
| 2026-05-01 13:25 | 70.94580 | 28.79051 | 6019 ft | 241 kts | 310° |
| 2026-05-01 13:25 | 70.95776 | 28.75504 | 5801 ft | 240 kts | 311° |
| 2026-05-01 13:26 | 70.97004 | 28.71944 | 5522 ft | 240 kts | 313° |
| 2026-05-01 13:26 | 70.98282 | 28.68619 | 5238 ft | 242 kts | 316° |
| 2026-05-01 13:26 | 70.99576 | 28.65500 | 5244 ft | 231 kts | 315° |
| 2026-05-01 13:26 | 71.00826 | 28.62327 | 4993 ft | 233 kts | 314° |
| 2026-05-01 13:27 | 71.02025 | 28.58972 | 4752 ft | 233 kts | 311° |
| 2026-05-01 13:27 | 71.03173 | 28.55470 | 4555 ft | 231 kts | 309° |
| 2026-05-01 13:27 | 71.05198 | 28.47877 | 3994 ft | 233 kts | 303° |
| 2026-05-01 13:28 | 71.07361 | 28.40818 | 3906 ft | 223 kts | 311° |
| 2026-05-01 13:28 | 71.08508 | 28.37682 | 3953 ft | 220 kts | 315° |
| 2026-05-01 13:29 | 71.10813 | 28.31839 | 3991 ft | 206 kts | 314° |
| 2026-05-01 13:29 | 71.12873 | 28.25913 | 3930 ft | 200 kts | 306° |
| 2026-05-01 13:30 | 71.16418 | 28.13278 | 3872 ft | 199 kts | 308° |
| 2026-05-01 13:31 | 71.17507 | 28.06144 | 3906 ft | 191 kts | 280° |
| 2026-05-01 13:31 | 71.17994 | 27.93490 | 3386 ft | 196 kts | 271° |
| 2026-05-01 13:32 | 71.16739 | 27.86315 | 3123 ft | 207 kts | 223° |
| 2026-05-01 13:33 | 71.12588 | 27.84711 | 2190 ft | 186 kts | 189° |
| 2026-05-01 13:33 | 71.10275 | 27.83790 | 1990 ft | 146 kts | 196° |
| 2026-05-01 13:34 | 71.08511 | 27.83490 | 1391 ft | 114 kts | 195° |
| 2026-05-01 13:34 | 71.06882 | 27.83052 | 1024 ft | 114 kts | 189° |
| 2026-05-01 13:35 | 71.05312 | 27.83022 | 585 ft | 107 kts | 195° |
| 2026-05-01 13:35 | 71.04585 | 27.82842 | 390 ft | 106 kts | 188° |
| 2026-05-01 13:35 | 71.03182 | 27.82701 | 32 ft | 93 kts | 184° |
| 2026-05-01 13:36 | 71.02698 | 27.82638 | 37 ft | 30 kts | 185° |
| 2026-05-01 13:36 | 71.02567 | 27.82610 | 45 ft | 16 kts | 195° |
| 2026-05-01 13:36 | 71.02664 | 27.82615 | 39 ft | 22 kts | 356° |
| 2026-05-01 13:37 | 71.02734 | 27.82756 | 37 ft | 12 kts | 96° |
| 2026-05-01 13:37 | 71.02752 | 27.82855 | 37 ft | 9 kts | 8° |
| 2026-05-01 13:37 | 71.02759 | 27.82858 | 37 ft | 0 kts | 5° |